Terminal Aerodrome Forecast
Issued by NWS Pendleton, OR

Home | Current Version | Previous Version | Text Only | Print | Product List | Glossary On
Versions: 1 2 3 4 5 6 7 8 9 10 11 12 13
000
FTUS46 KPDT 041720
TAFPDT
TAF
KPDT 041720Z 0418/0518 26006KT P6SM FEW100 BKN200
     FM042100 33008KT P6SM BKN100 OVC150
     FM050200 26009KT P6SM VCSH BKN080 OVC140
     FM050600 23006KT 6SM -SHRA BKN050 OVC080
     FM050900 24011G20KT 4SM -RA BR OVC040=

USA.gov is the U.S. government's official web portal to all federal, state and local government web resources and services.